Terminal Aerodrome Forecast
Issued by NWS Wakefield, VA

Home | Current Version | Previous Version | Text Only | Print | Product List | Glossary On
Versions: 1 2 3 4 5 6 7 8 9 10 11 12 13 14 15 16 17
000
FTUS41 KAKQ 242300 RRA
TAFSBY
TAF
KSBY 242346Z 2500/2524 00000KT P6SM -RA BKN070
     FM250200 VRB03KT P6SM SCT080
     FM250900 02005KT 3SM BR BKN250
     FM251400 06008KT P6SM SCT250
      AMD NOT SKED=

USA.gov is the U.S. government's official web portal to all federal, state and local government web resources and services.